createdAt,value
2018-07-10T00:02:19.372Z,22.10
2018-07-10T00:07:15.329Z,22.10
2018-07-10T00:12:00.533Z,22.10
2018-07-10T00:17:01.084Z,22.00
2018-07-10T00:19:31.870Z,22.00
2018-07-10T00:22:02.518Z,22.00
2018-07-10T00:24:33.411Z,22.10
2018-07-10T00:27:04.075Z,22.10
2018-07-10T00:29:34.666Z,22.20
2018-07-10T00:32:05.350Z,22.20
2018-07-10T00:34:35.830Z,22.20
2018-07-10T00:37:06.852Z,22.20
2018-07-10T00:39:37.430Z,22.10
2018-07-10T00:42:08.072Z,22.10
2018-07-10T00:44:38.560Z,22.20
2018-07-10T00:47:09.039Z,22.20
2018-07-10T00:49:39.701Z,22.20
2018-07-10T00:52:10.546Z,22.20
2018-07-10T00:54:41.139Z,22.10
2018-07-10T00:57:11.788Z,22.10
2018-07-10T00:59:42.631Z,22.10
2018-07-10T01:02:13.266Z,22.10
2018-07-10T01:04:43.909Z,22.10
2018-07-10T01:07:14.837Z,22.00
2018-07-10T01:09:45.359Z,22.10
2018-07-10T01:12:16.020Z,22.00
2018-07-10T01:14:46.700Z,22.00
2018-07-10T01:17:23.425Z,22.00
2018-07-10T01:19:54.476Z,22.10
2018-07-10T01:22:25.083Z,22.10
2018-07-10T01:27:25.778Z,21.90
2018-07-10T01:29:56.460Z,22.00
2018-07-10T01:32:27.615Z,22.00
2018-07-10T01:34:58.277Z,21.90
2018-07-10T01:37:29.245Z,21.90
2018-07-10T01:40:00.084Z,21.90
2018-07-10T01:42:30.968Z,21.90
2018-07-10T01:45:01.884Z,21.90
2018-07-10T01:50:02.234Z,21.90
2018-07-10T01:52:33.096Z,22.00
2018-07-10T01:55:03.903Z,21.90
2018-07-10T01:57:34.498Z,21.90
2018-07-10T02:00:05.377Z,21.90
2018-07-10T02:02:36.187Z,21.90
2018-07-10T02:05:06.891Z,21.90
2018-07-10T02:07:37.622Z,21.90
2018-07-10T02:10:08.404Z,21.90
2018-07-10T02:12:39.067Z,21.90
2018-07-10T02:15:09.816Z,21.80
2018-07-10T02:17:40.476Z,21.70
2018-07-10T02:20:11.204Z,21.60
2018-07-10T02:25:12.419Z,21.50
2018-07-10T02:27:43.250Z,21.40
2018-07-10T02:30:16.047Z,21.40
2018-07-10T02:32:46.914Z,21.30
2018-07-10T02:35:17.747Z,21.30
2018-07-10T02:37:50.447Z,21.30
2018-07-10T02:40:21.256Z,21.20
2018-07-10T02:42:52.215Z,21.20
2018-07-10T02:45:23.203Z,21.20
2018-07-10T02:47:54.008Z,21.30
2018-07-10T02:50:25.138Z,21.30
2018-07-10T02:52:56.113Z,21.40
2018-07-10T02:55:26.851Z,21.40
2018-07-10T02:57:57.759Z,21.40
2018-07-10T03:00:28.578Z,21.40
2018-07-10T03:02:59.603Z,21.40
2018-07-10T03:05:30.309Z,21.50
2018-07-10T03:10:31.141Z,21.50
2018-07-10T03:13:02.264Z,21.50
2018-07-10T03:15:33.219Z,21.50
2018-07-10T03:20:34.121Z,21.60
2018-07-10T03:23:05.268Z,21.60
2018-07-10T03:25:35.948Z,21.70
2018-07-10T03:28:06.927Z,21.70
2018-07-10T03:30:37.514Z,21.70
2018-07-10T03:33:08.465Z,21.60
2018-07-10T03:38:09.332Z,21.60
2018-07-10T03:40:40.184Z,21.60
2018-07-10T03:43:11.058Z,21.60
2018-07-10T03:45:41.934Z,21.70
2018-07-10T03:48:12.654Z,21.80
2018-07-10T03:50:43.522Z,21.90
2018-07-10T03:53:14.285Z,22.00
2018-07-10T03:55:45.174Z,22.10
2018-07-10T03:58:16.095Z,22.10
2018-07-10T04:00:46.852Z,22.20
2018-07-10T04:03:17.624Z,22.30
2018-07-10T04:05:48.642Z,22.40
2018-07-10T04:08:19.761Z,22.40
2018-07-10T04:10:50.526Z,22.50
2018-07-10T04:13:21.796Z,22.50
2018-07-10T04:16:00.270Z,22.60
2018-07-10T04:18:33.312Z,22.60
2018-07-10T04:21:18.325Z,22.70
2018-07-10T04:23:56.330Z,22.70
2018-07-10T04:26:27.054Z,22.70
2018-07-10T04:29:21.936Z,22.80
2018-07-10T04:31:58.093Z,22.80
2018-07-10T04:34:30.683Z,22.90
2018-07-10T04:37:12.886Z,23.00
2018-07-10T04:39:44.822Z,23.00
2018-07-10T04:42:24.667Z,23.10
2018-07-10T04:45:08.203Z,23.10
2018-07-10T04:47:50.110Z,23.10
2018-07-10T04:50:42.812Z,23.10
2018-07-10T04:55:47.422Z,23.40
2018-07-10T04:58:20.666Z,23.50
2018-07-10T05:00:56.390Z,23.60
2018-07-10T05:03:27.817Z,23.70
2018-07-10T05:06:00.563Z,23.80
2018-07-10T05:08:31.561Z,23.80
2018-07-10T05:11:02.954Z,23.90
2018-07-10T05:13:33.727Z,24.10
2018-07-10T05:16:07.330Z,24.20
2018-07-10T05:18:38.034Z,24.40
2018-07-10T05:21:14.034Z,24.40
2018-07-10T05:23:45.147Z,24.40
2018-07-10T05:26:17.291Z,24.40
2018-07-10T05:28:51.475Z,24.70
2018-07-10T05:31:23.190Z,24.90
2018-07-10T05:33:53.980Z,25.10
2018-07-10T05:39:11.791Z,25.30
2018-07-10T05:41:48.169Z,25.40
2018-07-10T05:44:22.082Z,25.60
2018-07-10T05:46:53.296Z,25.80
2018-07-10T05:49:24.175Z,26.00
2018-07-10T05:51:55.055Z,26.20
2018-07-10T05:54:27.913Z,26.20
2018-07-10T05:59:28.422Z,26.30
2018-07-10T06:01:58.996Z,26.20
2018-07-10T06:04:29.843Z,26.00
2018-07-10T06:07:01.511Z,26.00
2018-07-10T06:09:32.063Z,26.20
2018-07-10T06:12:02.865Z,26.40
2018-07-10T06:14:33.745Z,26.50
2018-07-10T06:17:04.579Z,26.70
2018-07-10T06:19:35.443Z,26.90
2018-07-10T06:22:06.170Z,27.20
2018-07-10T06:24:37.781Z,27.40
2018-07-10T06:27:09.048Z,27.30
2018-07-10T06:30:05.902Z,27.40
2018-07-10T06:33:04.675Z,27.70
2018-07-10T06:35:45.155Z,27.70
2018-07-10T06:38:18.919Z,27.90
2018-07-10T06:40:51.748Z,27.60
2018-07-10T06:44:26.976Z,27.70
2018-07-10T06:47:00.720Z,27.70
2018-07-10T06:49:34.022Z,28.10
2018-07-10T06:52:15.566Z,28.30
2018-07-10T06:55:21.657Z,28.30
2018-07-10T06:57:57.791Z,28.40
2018-07-10T07:00:28.938Z,28.10
2018-07-10T07:03:02.450Z,27.90
2018-07-10T07:05:33.833Z,28.20
2018-07-10T07:08:04.591Z,28.40
2018-07-10T07:10:35.336Z,28.50
2018-07-10T07:13:05.955Z,28.60
2018-07-10T07:15:36.864Z,28.60
2018-07-10T07:18:10.119Z,28.40
2018-07-10T07:20:41.214Z,28.80
2018-07-10T07:23:13.077Z,28.60
2018-07-10T07:25:43.805Z,28.90
2018-07-10T07:28:14.506Z,29.30
2018-07-10T07:30:45.145Z,29.60
2018-07-10T07:33:15.888Z,29.40
2018-07-10T07:35:46.355Z,29.10
2018-07-10T07:38:17.823Z,29.50
2018-07-10T07:40:48.610Z,29.80
2018-07-10T07:43:19.498Z,29.80
2018-07-10T07:45:51.219Z,29.30
2018-07-10T07:48:25.159Z,29.40
2018-07-10T07:50:56.196Z,29.30
2018-07-10T07:53:27.021Z,29.50
2018-07-10T07:55:57.963Z,29.80
2018-07-10T07:58:28.966Z,29.90
2018-07-10T08:00:59.913Z,30.10
2018-07-10T08:03:30.654Z,30.30
2018-07-10T08:06:01.959Z,30.30
2018-07-10T08:08:32.776Z,29.80
2018-07-10T08:11:03.883Z,29.90
2018-07-10T08:16:04.906Z,30.00
2018-07-10T08:18:35.888Z,30.10
2018-07-10T08:21:06.786Z,30.40
2018-07-10T08:23:37.672Z,30.50
2018-07-10T08:26:08.866Z,30.80
2018-07-10T08:28:40.013Z,31.00
2018-07-10T08:31:12.391Z,31.10
2018-07-10T08:36:14.387Z,31.30
2018-07-10T08:38:48.601Z,30.90
2018-07-10T08:41:26.246Z,31.30
2018-07-10T08:44:00.273Z,31.60
2018-07-10T08:46:34.248Z,31.60
2018-07-10T08:49:07.396Z,31.50
2018-07-10T08:51:41.555Z,31.60
2018-07-10T08:54:14.201Z,31.50
2018-07-10T08:56:51.579Z,31.90
2018-07-10T08:59:24.702Z,31.60
2018-07-10T09:01:56.130Z,31.90
2018-07-10T09:04:31.490Z,31.80
2018-07-10T09:07:03.096Z,31.70
2018-07-10T09:09:34.548Z,31.50
2018-07-10T09:12:07.848Z,31.90
2018-07-10T09:14:45.220Z,31.90
2018-07-10T09:17:16.173Z,31.80
2018-07-10T09:19:48.453Z,31.90
2018-07-10T09:22:27.566Z,32.10
2018-07-10T09:24:59.829Z,32.30
2018-07-10T09:27:33.762Z,32.30
2018-07-10T09:30:04.704Z,32.20
2018-07-10T09:32:40.755Z,32.50
2018-07-10T09:35:11.530Z,32.60
2018-07-10T09:37:48.863Z,32.60
2018-07-10T09:40:23.493Z,32.50
2018-07-10T09:43:00.739Z,32.50
2018-07-10T09:45:41.188Z,32.60
2018-07-10T09:50:46.050Z,32.50
2018-07-10T09:53:20.386Z,32.20
2018-07-10T09:55:52.261Z,31.90
2018-07-10T10:01:02.086Z,32.20
2018-07-10T10:03:34.254Z,32.60
2018-07-10T10:06:14.160Z,33.10
2018-07-10T10:08:45.124Z,33.20
2018-07-10T10:11:17.008Z,33.40
2018-07-10T10:13:53.972Z,33.20
2018-07-10T10:16:25.754Z,33.00
2018-07-10T10:19:00.624Z,33.30
2018-07-10T10:21:37.591Z,33.40
2018-07-10T10:24:18.052Z,33.60
2018-07-10T10:26:51.006Z,33.80
2018-07-10T10:32:00.716Z,33.50
2018-07-10T10:37:17.489Z,33.20
2018-07-10T10:39:52.929Z,33.50
2018-07-10T10:42:26.566Z,33.30
2018-07-10T10:45:00.769Z,33.10
2018-07-10T10:47:38.908Z,33.30
2018-07-10T10:50:15.027Z,33.60
2018-07-10T10:52:49.438Z,33.60
2018-07-10T10:55:20.419Z,33.80
2018-07-10T10:57:51.466Z,33.50
2018-07-10T11:00:22.398Z,33.40
2018-07-10T11:05:24.383Z,33.40
2018-07-10T11:07:55.233Z,33.30
2018-07-10T11:10:26.054Z,33.60
2018-07-10T11:12:57.621Z,33.70
2018-07-10T11:15:28.680Z,33.50
2018-07-10T11:18:06.947Z,33.70
2018-07-10T11:23:29.640Z,33.30
2018-07-10T11:26:06.880Z,33.00
2018-07-10T11:28:37.814Z,32.70
2018-07-10T11:31:08.472Z,33.00
2018-07-10T11:36:09.358Z,33.50
2018-07-10T11:38:40.251Z,33.40
2018-07-10T11:41:11.399Z,33.50
2018-07-10T11:43:42.253Z,33.80
2018-07-10T11:46:13.129Z,33.80
2018-07-10T11:48:43.782Z,33.40
2018-07-10T11:51:14.502Z,33.10
2018-07-10T11:53:45.477Z,33.20
2018-07-10T11:56:16.044Z,33.30
2018-07-10T11:58:47.175Z,33.50
2018-07-10T12:01:18.503Z,33.80
2018-07-10T12:06:19.795Z,34.20
2018-07-10T12:08:56.314Z,34.30
2018-07-10T12:11:31.917Z,34.40
2018-07-10T12:14:02.841Z,34.50
2018-07-10T12:16:33.566Z,34.50
2018-07-10T12:19:04.269Z,34.80
2018-07-10T12:21:35.882Z,34.50
2018-07-10T12:24:07.429Z,34.60
2018-07-10T12:26:38.817Z,35.00
2018-07-10T12:29:09.618Z,34.80
2018-07-10T12:31:40.830Z,34.80
2018-07-10T12:34:11.832Z,34.90
2018-07-10T12:36:42.674Z,34.70
2018-07-10T12:41:43.679Z,34.40
2018-07-10T12:44:14.439Z,34.40
2018-07-10T12:49:15.151Z,34.90
2018-07-10T12:51:45.946Z,34.80
2018-07-10T12:54:17.280Z,34.10
2018-07-10T12:56:48.187Z,34.20
2018-07-10T12:59:19.139Z,34.50
2018-07-10T13:01:50.018Z,34.60
2018-07-10T13:04:21.105Z,34.90
2018-07-10T13:06:51.820Z,34.60
2018-07-10T13:09:22.589Z,34.80
2018-07-10T13:11:53.398Z,34.90
2018-07-10T13:14:24.349Z,34.40
2018-07-10T13:16:55.105Z,34.10
2018-07-10T13:19:26.022Z,34.20
2018-07-10T13:21:56.650Z,34.00
2018-07-10T13:24:28.011Z,33.70
2018-07-10T13:26:58.876Z,33.60
2018-07-10T13:34:29.543Z,33.80
2018-07-10T13:39:30.383Z,33.60
2018-07-10T13:42:01.312Z,34.00
2018-07-10T13:44:32.170Z,34.10
2018-07-10T13:49:32.998Z,34.20
2018-07-10T13:52:03.772Z,34.30
2018-07-10T13:54:34.444Z,34.60
2018-07-10T13:57:05.479Z,34.70
2018-07-10T13:59:36.218Z,34.90
2018-07-10T14:02:07.305Z,34.90
2018-07-10T14:04:38.061Z,34.60
2018-07-10T14:07:09.033Z,34.80
2018-07-10T14:09:39.883Z,34.60
2018-07-10T14:12:10.658Z,34.50
2018-07-10T14:14:41.592Z,34.60
2018-07-10T14:19:42.935Z,34.40
2018-07-10T14:24:43.705Z,34.30
2018-07-10T14:27:14.645Z,34.60
2018-07-10T14:29:45.395Z,34.80
2018-07-10T14:32:16.245Z,34.50
2018-07-10T14:34:46.964Z,34.70
2018-07-10T14:37:18.386Z,35.00
2018-07-10T14:39:49.719Z,35.00
2018-07-10T14:42:21.056Z,34.60
2018-07-10T14:44:51.943Z,34.90
2018-07-10T14:49:53.417Z,34.80
2018-07-10T14:52:24.266Z,35.10
2018-07-10T14:54:55.098Z,34.90
2018-07-10T14:57:26.071Z,34.70
2018-07-10T14:59:56.882Z,34.10
2018-07-10T15:02:27.792Z,33.10
2018-07-10T15:04:58.426Z,33.40
2018-07-10T15:07:29.321Z,32.90
2018-07-10T15:10:00.119Z,32.20
2018-07-10T15:12:30.775Z,32.00
2018-07-10T15:15:01.371Z,31.60
2018-07-10T15:17:37.113Z,31.60
2018-07-10T15:20:07.841Z,31.80
2018-07-10T15:22:39.376Z,32.00
2018-07-10T15:25:10.048Z,32.10
2018-07-10T15:27:45.554Z,32.50
2018-07-10T15:30:17.372Z,33.00
2018-07-10T15:32:48.590Z,33.30
2018-07-10T15:35:19.342Z,33.40
2018-07-10T15:37:50.183Z,32.90
2018-07-10T15:40:21.092Z,32.50
2018-07-10T15:42:52.543Z,32.70
2018-07-10T15:45:23.171Z,32.40
2018-07-10T15:47:53.935Z,32.40
2018-07-10T15:52:54.332Z,31.80
2018-07-10T15:55:25.373Z,31.50
2018-07-10T15:57:56.578Z,31.50
2018-07-10T16:00:27.444Z,31.40
2018-07-10T16:02:58.904Z,31.60
2018-07-10T16:05:29.994Z,32.20
2018-07-10T16:08:26.338Z,33.00
2018-07-10T16:11:01.746Z,33.50
2018-07-10T16:13:50.904Z,33.30
2018-07-10T16:16:22.423Z,33.50
2018-07-10T16:21:03.209Z,33.90
2018-07-10T16:26:12.184Z,33.70
2018-07-10T16:28:44.304Z,33.50
2018-07-10T16:31:20.072Z,33.40
2018-07-10T16:33:51.237Z,33.20
2018-07-10T16:36:22.239Z,32.40
2018-07-10T16:38:53.152Z,31.40
2018-07-10T16:41:29.297Z,31.30
2018-07-10T16:44:05.093Z,31.00
2018-07-10T16:46:36.153Z,30.70
2018-07-10T16:49:18.790Z,30.60
2018-07-10T16:51:55.215Z,30.30
2018-07-10T16:54:26.073Z,30.00
2018-07-10T16:56:56.610Z,30.00
2018-07-10T16:59:28.479Z,29.70
2018-07-10T17:01:59.233Z,29.50
2018-07-10T17:07:00.036Z,29.10
2018-07-10T17:09:30.841Z,28.80
2018-07-10T17:12:01.869Z,28.70
2018-07-10T17:14:32.896Z,28.70
2018-07-10T17:17:04.020Z,28.60
2018-07-10T17:19:34.881Z,28.40
2018-07-10T17:22:05.787Z,28.20
2018-07-10T17:24:36.786Z,28.20
2018-07-10T17:29:42.759Z,28.00
2018-07-10T17:34:44.864Z,27.80
2018-07-10T17:37:15.592Z,27.70
2018-07-10T17:39:46.523Z,27.60
2018-07-10T17:42:17.859Z,27.60
2018-07-10T17:44:49.039Z,27.60
2018-07-10T17:47:20.382Z,27.50
2018-07-10T17:49:51.321Z,27.50
2018-07-10T17:52:22.268Z,27.40
2018-07-10T17:54:53.101Z,27.40
2018-07-10T17:57:23.918Z,27.40
2018-07-10T17:59:58.686Z,27.40
2018-07-10T18:02:29.595Z,27.40
2018-07-10T18:05:00.685Z,27.30
2018-07-10T18:07:31.387Z,27.30
2018-07-10T18:10:02.184Z,27.30
2018-07-10T18:12:33.074Z,27.30
2018-07-10T18:15:03.879Z,27.20
2018-07-10T18:17:34.763Z,27.00
2018-07-10T18:20:05.426Z,27.10
2018-07-10T18:22:36.184Z,27.00
2018-07-10T18:25:07.211Z,26.90
2018-07-10T18:27:38.419Z,27.00
2018-07-10T18:30:09.175Z,27.00
2018-07-10T18:32:40.143Z,26.80
2018-07-10T18:35:11.330Z,26.70
2018-07-10T18:37:43.705Z,26.70
2018-07-10T18:40:15.080Z,26.70
2018-07-10T18:42:47.020Z,26.50
2018-07-10T18:45:18.749Z,26.50
2018-07-10T18:47:52.221Z,26.50
2018-07-10T18:50:25.100Z,26.50
2018-07-10T18:52:58.056Z,26.40
2018-07-10T18:58:14.466Z,26.30
2018-07-10T19:03:23.997Z,26.20
2018-07-10T19:05:59.008Z,26.10
2018-07-10T19:08:31.852Z,26.10
2018-07-10T19:11:05.143Z,26.10
2018-07-10T19:13:38.583Z,26.00
2018-07-10T19:16:11.256Z,26.00
2018-07-10T19:18:43.913Z,26.00
2018-07-10T19:21:28.360Z,26.00
2018-07-10T19:24:06.277Z,25.90
2018-07-10T19:26:40.546Z,25.80
2018-07-10T19:29:23.665Z,25.80
2018-07-10T19:31:57.348Z,25.80
2018-07-10T19:34:30.320Z,25.80
2018-07-10T19:37:03.129Z,25.80
2018-07-10T19:39:36.791Z,25.70
2018-07-10T19:44:41.631Z,25.60
2018-07-10T19:47:14.697Z,25.50
2018-07-10T19:49:49.251Z,25.50
2018-07-10T19:52:22.631Z,25.50
2018-07-10T19:54:56.477Z,25.50
2018-07-10T19:57:44.849Z,25.40
2018-07-10T20:00:18.005Z,25.40
2018-07-10T20:02:51.152Z,25.40
2018-07-10T20:05:24.406Z,25.40
2018-07-10T20:08:09.100Z,25.30
2018-07-10T20:11:13.196Z,25.40
2018-07-10T20:13:51.286Z,25.30
2018-07-10T20:16:39.296Z,25.30
2018-07-10T20:19:22.164Z,25.20
2018-07-10T20:22:37.180Z,25.20
2018-07-10T20:27:16.517Z,25.10
2018-07-10T20:30:04.964Z,25.10
2018-07-10T20:32:50.525Z,25.10
2018-07-10T20:35:38.476Z,25.10
2018-07-10T20:38:11.597Z,25.00
2018-07-10T20:40:45.829Z,25.00
2018-07-10T20:45:53.073Z,25.00
2018-07-10T20:48:39.254Z,24.90
2018-07-10T20:51:12.897Z,24.90
2018-07-10T20:53:49.906Z,24.90
2018-07-10T20:56:45.028Z,24.80
2018-07-10T20:59:25.487Z,24.80
2018-07-10T21:02:01.925Z,24.70
2018-07-10T21:04:51.361Z,24.80
2018-07-10T21:07:33.048Z,24.70
2018-07-10T21:10:16.770Z,24.60
2018-07-10T21:12:57.655Z,24.70
2018-07-10T21:15:44.838Z,24.70
2018-07-10T21:18:30.836Z,24.60
2018-07-10T21:21:11.507Z,24.60
2018-07-10T21:23:58.255Z,24.50
2018-07-10T21:30:19.263Z,24.50
2018-07-10T21:35:49.063Z,24.50
2018-07-10T21:38:35.978Z,24.40
2018-07-10T21:41:40.608Z,24.40
2018-07-10T21:46:28.174Z,24.40
2018-07-10T21:50:03.328Z,24.40
2018-07-10T21:52:35.120Z,24.20
2018-07-10T21:55:06.530Z,24.20
2018-07-10T21:57:42.033Z,24.20
2018-07-10T22:00:12.656Z,24.10
2018-07-10T22:02:43.468Z,24.10
2018-07-10T22:05:14.184Z,24.10
2018-07-10T22:07:45.133Z,24.10
2018-07-10T22:10:15.912Z,24.10
2018-07-10T22:12:49.778Z,24.00
2018-07-10T22:15:20.683Z,24.00
2018-07-10T22:17:51.443Z,23.90
2018-07-10T22:20:22.375Z,23.90
2018-07-10T22:22:53.073Z,23.90
2018-07-10T22:25:23.829Z,23.90
2018-07-10T22:27:55.090Z,23.80
2018-07-10T22:30:30.645Z,23.80
2018-07-10T22:33:04.551Z,23.80
2018-07-10T22:35:35.523Z,23.80
2018-07-10T22:38:06.575Z,23.80
2018-07-10T22:40:37.366Z,23.80
2018-07-10T22:43:08.010Z,23.80
2018-07-10T22:45:38.762Z,23.80
2018-07-10T22:48:09.622Z,23.80
2018-07-10T22:50:40.538Z,23.90
2018-07-10T22:53:11.434Z,23.80
2018-07-10T22:55:42.373Z,23.80
2018-07-10T22:58:13.164Z,23.80
2018-07-10T23:00:43.831Z,23.80
2018-07-10T23:03:23.956Z,23.80
2018-07-10T23:05:55.259Z,23.70
2018-07-10T23:08:34.064Z,23.70
2018-07-10T23:11:07.377Z,23.70
2018-07-10T23:13:41.420Z,23.50
2018-07-10T23:18:42.711Z,23.40
2018-07-10T23:21:15.698Z,23.20
2018-07-10T23:23:46.206Z,23.20
2018-07-10T23:26:19.165Z,23.10
2018-07-10T23:28:54.487Z,23.00
2018-07-10T23:31:30.084Z,23.00
2018-07-10T23:34:09.538Z,23.00
2018-07-10T23:36:40.336Z,23.00
2018-07-10T23:39:11.831Z,23.00
2018-07-10T23:42:04.789Z,23.00
2018-07-10T23:44:43.660Z,22.90
2018-07-10T23:47:21.364Z,22.90
2018-07-10T23:53:06.189Z,22.80
2018-07-10T23:55:36.520Z,22.80
2018-07-10T23:58:07.592Z,22.80
